Time;durP1;ratioP1;P1;durP2;ratioP2;P2;SDS_P1;SDS_P2;PMS_P1;PMS_P2;Temp;Humidity;BMP_temperature;BMP_pressure;BME280_temperature;BME280_humidity;BME280_pressure;Samples;Min_cycle;Max_cycle;Signal;HPM_P1;HPM_P2
2022/10/02 00:02:31;;;;;;;4.93;1.70;;;;;;;16.77;70.87;97477.25;4848677;29;20197;-80
2022/10/02 00:05:09;;;;;;;4.60;1.15;;;;;;;16.70;70.68;97466.28;4835362;29;20651;-81
2022/10/02 00:07:39;;;;;;;4.45;1.67;;;;;;;16.76;70.92;97469.63;4847316;29;20281;-81
2022/10/02 00:10:40;;;;;;;4.30;1.38;;;;;;;16.57;71.36;97478.22;4854257;29;20319;-80
2022/10/02 00:13:45;;;;;;;5.35;2.03;;;;;;;16.48;71.58;97471.97;4824779;29;20702;-80
2022/10/02 00:16:35;;;;;;;6.97;2.33;;;;;;;16.62;71.43;97475.56;4863807;29;20255;-80
2022/10/02 00:19:01;;;;;;;5.30;2.60;;;;;;;16.82;71.18;97471.94;4835520;29;20236;-81
2022/10/02 00:21:37;;;;;;;6.97;3.72;;;;;;;16.61;71.52;97473.97;4842078;29;20363;-81
2022/10/02 00:24:05;;;;;;;6.32;3.08;;;;;;;16.80;71.29;97487.22;4852406;29;20188;-80
2022/10/02 00:26:37;;;;;;;5.65;3.50;;;;;;;16.61;71.46;97487.13;4847675;29;20279;-81
2022/10/02 00:29:02;;;;;;;8.27;3.88;;;;;;;16.77;71.35;97482.50;4852369;29;20254;-81
2022/10/02 00:31:40;;;;;;;10.45;3.53;;;;;;;16.69;71.08;97467.34;4852300;29;20385;-81
2022/10/02 00:34:25;;;;;;;8.60;3.58;;;;;;;16.64;71.83;97465.53;4849375;29;20232;-80
2022/10/02 00:37:13;;;;;;;13.35;3.78;;;;;;;16.69;71.35;97469.19;4859876;29;20594;-80
2022/10/02 00:39:48;;;;;;;7.53;4.90;;;;;;;16.72;70.94;97474.66;4849348;29;20800;-80
2022/10/02 00:42:47;;;;;;;10.70;5.00;;;;;;;16.67;71.32;97472.88;4851273;29;20205;-81
2022/10/02 00:45:31;;;;;;;10.70;5.78;;;;;;;16.78;71.27;97467.53;4849236;29;20372;-80
2022/10/02 00:48:10;;;;;;;9.07;4.65;;;;;;;16.73;71.15;97475.47;4847265;29;20243;-81
2022/10/02 00:50:36;;;;;;;14.65;5.80;;;;;;;16.73;71.11;97465.72;4858907;29;20268;-81
2022/10/02 00:53:04;;;;;;;10.55;5.90;;;;;;;16.74;71.17;97474.38;4851358;29;20654;-80
2022/10/02 00:55:38;;;;;;;11.63;6.32;;;;;;;16.56;71.77;97479.28;4850823;29;20227;-81
2022/10/02 00:58:04;;;;;;;13.70;7.25;;;;;;;16.83;71.41;97476.16;4849274;29;20199;-80
2022/10/02 01:00:30;;;;;;;11.13;7.22;;;;;;;16.86;71.29;97474.81;4848824;29;20213;-80
2022/10/02 01:03:08;;;;;;;13.00;6.68;;;;;;;16.72;70.98;97473.88;4832672;29;20216;-80
2022/10/02 01:05:33;;;;;;;15.93;6.95;;;;;;;16.92;70.62;97478.22;4838667;29;20718;-80
2022/10/02 01:07:59;;;;;;;12.40;6.97;;;;;;;16.90;70.87;97481.13;4848150;29;20279;-80
2022/10/02 01:10:25;;;;;;;15.63;6.88;;;;;;;16.84;71.08;97492.72;4870191;29;20286;-80
2022/10/02 01:12:52;;;;;;;17.02;7.82;;;;;;;16.73;71.14;97489.38;4848338;29;20239;-78
2022/10/02 01:15:20;;;;;;;20.27;7.72;;;;;;;16.77;70.94;97476.47;4853987;29;20248;-79
2022/10/02 01:17:49;;;;;;;15.55;6.05;;;;;;;16.61;71.20;97468.72;4857141;29;20204;-79
2022/10/02 01:20:18;;;;;;;16.30;6.95;;;;;;;16.72;71.05;97466.00;4837938;29;20225;-79
2022/10/02 01:23:01;;;;;;;17.48;6.03;;;;;;;16.53;71.69;97473.78;4842916;29;20770;-79
2022/10/02 01:25:26;;;;;;;12.50;6.00;;;;;;;16.83;70.88;97478.78;4838774;29;20275;-79
2022/10/02 01:27:52;;;;;;;16.00;5.32;;;;;;;16.84;70.86;97485.66;4859631;29;20445;-79
2022/10/02 01:30:19;;;;;;;14.40;5.80;;;;;;;16.78;70.72;97484.09;4853433;29;20571;-78
2022/10/02 01:32:59;;;;;;;8.27;5.60;;;;;;;16.62;71.10;97491.31;4838810;29;20192;-79
2022/10/02 01:35:30;;;;;;;15.45;6.53;;;;;;;16.72;71.11;97474.66;4838537;29;20245;-78
2022/10/02 01:37:56;;;;;;;9.45;5.28;;;;;;;16.75;71.38;97468.09;4860264;29;20696;-79
2022/10/02 01:40:28;;;;;;;13.43;4.78;;;;;;;16.62;71.26;97465.03;4842691;29;20354;-79
2022/10/02 01:42:57;;;;;;;14.60;5.53;;;;;;;16.71;71.08;97467.84;4853984;29;20247;-78
2022/10/02 01:45:32;;;;;;;15.73;5.43;;;;;;;16.72;70.86;97472.03;4847417;29;21341;-78
2022/10/02 01:48:07;;;;;;;10.85;4.82;;;;;;;16.71;70.54;97473.13;4837382;29;20191;-79
2022/10/02 01:50:58;;;;;;;14.30;6.00;;;;;;;16.56;71.90;97481.91;4838812;29;20281;-79
2022/10/02 01:54:08;;;;;;;10.68;5.22;;;;;;;16.53;71.83;97481.66;4854529;29;20354;-79
2022/10/02 01:56:42;;;;;;;12.45;5.20;;;;;;;16.57;71.11;97483.47;4775571;29;20225;-79
2022/10/02 01:59:22;;;;;;;12.70;4.47;;;;;;;16.55;71.51;97475.06;4784268;29;20492;-79
2022/10/02 02:02:18;;;;;;;11.57;5.43;;;;;;;16.55;71.05;97477.69;4763227;29;20289;-79
2022/10/02 02:04:53;;;;;;;10.55;4.43;;;;;;;16.55;71.26;97475.06;4761857;29;20696;-79
2022/10/02 02:07:34;;;;;;;13.57;5.78;;;;;;;16.54;71.41;97480.63;4776044;29;20240;-79
2022/10/02 02:10:25;;;;;;;15.38;4.75;;;;;;;16.53;71.42;97482.44;4775888;29;20213;-80
2022/10/02 02:13:12;;;;;;;11.20;5.30;;;;;;;16.51;71.33;97484.56;4777000;29;20187;-78
2022/10/02 02:16:24;;;;;;;10.50;5.10;;;;;;;16.43;71.72;97482.53;4761718;29;20223;-79
2022/10/02 02:18:59;;;;;;;9.85;3.42;;;;;;;16.55;71.13;97472.44;4759717;29;20302;-79
2022/10/02 02:21:37;;;;;;;15.32;4.47;;;;;;;16.54;71.01;97475.38;4746370;29;20245;-79
2022/10/02 02:24:08;;;;;;;10.93;4.38;;;;;;;16.62;70.69;97480.81;4760272;29;20117;-79
2022/10/02 02:26:34;;;;;;;12.93;5.53;;;;;;;16.63;70.57;97473.69;4790255;29;20189;-78
2022/10/02 02:29:02;;;;;;;16.48;4.40;;;;;;;16.53;71.12;97476.41;4844927;29;20219;-79
2022/10/02 02:31:31;;;;;;;8.50;4.00;;;;;;;16.57;71.04;97483.47;4849834;29;20400;-79
2022/10/02 02:34:00;;;;;;;8.63;3.50;;;;;;;16.58;71.16;97485.03;4835183;29;20188;-79
2022/10/02 02:36:32;;;;;;;11.65;3.30;;;;;;;16.51;70.88;97479.31;4849109;29;20749;-78
2022/10/02 02:39:00;;;;;;;7.82;3.53;;;;;;;16.58;70.88;97474.53;4841048;29;20193;-79
2022/10/02 02:41:27;;;;;;;11.88;3.78;;;;;;;16.56;70.70;97471.38;4835388;29;20273;-79
2022/10/02 02:44:17;;;;;;;9.15;3.58;;;;;;;16.19;71.59;97466.66;4855716;29;20266;-79
2022/10/02 02:47:10;;;;;;;11.15;3.70;;;;;;;16.39;71.38;97460.50;4852562;29;20306;-79
2022/10/02 02:49:50;;;;;;;10.98;4.40;;;;;;;16.34;71.43;97471.81;4835382;29;20216;-80
2022/10/02 02:52:28;;;;;;;10.45;3.80;;;;;;;16.36;71.37;97466.28;4841202;29;20208;-79
2022/10/02 02:55:05;;;;;;;9.60;4.80;;;;;;;16.39;71.25;97478.88;4864734;29;20161;-79
2022/10/02 02:57:42;;;;;;;13.27;3.60;;;;;;;16.37;71.19;97467.88;4840842;29;20275;-78
2022/10/02 03:00:08;;;;;;;14.30;3.80;;;;;;;16.57;70.83;97464.28;4851887;29;20671;-78
2022/10/02 03:02:34;;;;;;;11.77;4.25;;;;;;;16.51;70.75;97473.28;4850858;29;20655;-79
2022/10/02 03:04:59;;;;;;;11.73;3.95;;;;;;;16.57;71.25;97478.22;4852984;29;20200;-79
2022/10/02 03:07:25;;;;;;;12.10;3.85;;;;;;;16.39;71.75;97484.13;4857939;29;20647;-79
2022/10/02 03:10:24;;;;;;;12.65;4.05;;;;;;;16.33;71.71;97479.97;4851621;29;20272;-78
2022/10/02 03:13:30;;;;;;;8.18;3.83;;;;;;;16.41;71.65;97493.31;4854135;29;20389;-79
2022/10/02 03:16:17;;;;;;;13.15;3.88;;;;;;;16.37;71.62;97488.91;4814542;29;20248;-79
2022/10/02 03:19:04;;;;;;;10.73;4.10;;;;;;;16.26;71.88;97494.22;4836116;29;20326;-79
2022/10/02 03:21:45;;;;;;;7.15;3.38;;;;;;;16.38;71.58;97495.69;4848440;29;20216;-79
2022/10/02 03:24:19;;;;;;;16.45;4.10;;;;;;;16.44;71.28;97499.88;4839924;29;20200;-78
2022/10/02 03:27:00;;;;;;;4.93;2.80;;;;;;;16.59;71.00;97491.88;4851198;29;20194;-79
2022/10/02 03:29:52;;;;;;;13.02;3.50;;;;;;;16.46;70.93;97495.13;4858621;29;20220;-79
2022/10/02 03:32:17;;;;;;;11.77;4.50;;;;;;;16.70;70.50;97487.31;4847728;29;20223;-78
2022/10/02 03:34:43;;;;;;;13.05;4.55;;;;;;;16.70;70.83;97497.06;4860705;29;20218;-78
2022/10/02 03:37:09;;;;;;;11.27;3.65;;;;;;;16.68;70.68;97494.69;4835999;29;20194;-78
2022/10/02 03:39:34;;;;;;;10.45;3.35;;;;;;;16.64;71.09;97498.94;4835981;29;20296;-79
2022/10/02 03:42:00;;;;;;;10.30;3.58;;;;;;;16.66;70.83;97494.97;4842241;29;20303;-79
2022/10/02 03:44:26;;;;;;;13.63;4.40;;;;;;;16.55;71.26;97490.84;4832982;29;20778;-79
2022/10/02 03:46:51;;;;;;;11.90;3.88;;;;;;;16.52;70.93;97495.84;4849529;29;20776;-79
2022/10/02 03:49:16;;;;;;;12.77;4.07;;;;;;;16.63;71.11;97503.41;4861112;29;20338;-79
2022/10/02 03:51:42;;;;;;;11.40;3.65;;;;;;;16.36;72.02;97495.97;4850901;29;20568;-79
2022/10/02 03:54:18;;;;;;;11.70;3.90;;;;;;;16.44;71.59;97502.50;4842371;29;20192;-79
2022/10/02 03:56:58;;;;;;;9.80;3.38;;;;;;;16.44;71.46;97505.91;4852038;29;20620;-78
2022/10/02 03:59:47;;;;;;;9.63;3.03;;;;;;;16.37;71.26;97491.53;4835456;29;20259;-79
2022/10/02 04:02:37;;;;;;;12.23;3.55;;;;;;;16.37;71.56;97497.56;4851180;29;20200;-78
2022/10/02 04:05:28;;;;;;;11.95;4.07;;;;;;;16.27;71.78;97490.50;4842925;29;20223;-78
2022/10/02 04:07:57;;;;;;;10.88;3.83;;;;;;;16.36;71.13;97482.06;4850705;29;20211;-79
2022/10/02 04:10:30;;;;;;;8.30;3.10;;;;;;;16.34;71.42;97486.81;4850960;29;20220;-79
2022/10/02 04:13:13;;;;;;;11.05;3.00;;;;;;;16.47;71.48;97484.34;4852617;29;20204;-79
2022/10/02 04:15:47;;;;;;;14.00;3.70;;;;;;;16.46;71.20;97481.97;4836771;29;20266;-79
2022/10/02 04:18:33;;;;;;;11.07;3.40;;;;;;;16.37;71.50;97488.91;4853954;29;20504;-79
2022/10/02 04:21:03;;;;;;;11.18;3.92;;;;;;;16.46;70.92;97497.75;4850669;29;20658;-78
2022/10/02 04:23:32;;;;;;;8.55;2.90;;;;;;;16.61;70.60;97495.00;4836150;29;20264;-79
2022/10/02 04:26:15;;;;;;;6.72;2.72;;;;;;;16.36;71.20;97485.47;4836241;29;20717;-79
2022/10/02 04:28:51;;;;;;;9.55;3.20;;;;;;;16.44;71.14;97498.03;4848680;29;20221;-78
2022/10/02 04:31:16;;;;;;;10.10;3.15;;;;;;;16.53;70.89;97479.03;4849683;29;20322;-79
2022/10/02 04:33:42;;;;;;;10.93;4.55;;;;;;;16.60;70.75;97482.91;4853205;29;20730;-79
2022/10/02 04:36:32;;;;;;;9.02;3.45;;;;;;;16.38;71.20;97482.56;4850620;29;20513;-78
2022/10/02 04:39:17;;;;;;;7.75;3.55;;;;;;;16.40;71.21;97477.81;4851669;29;20204;-79
2022/10/02 04:42:22;;;;;;;13.15;4.53;;;;;;;16.18;71.97;97483.50;4814914;29;20239;-79
2022/10/02 04:45:04;;;;;;;7.50;3.42;;;;;;;16.35;70.77;97478.66;4837809;29;20224;-78
2022/10/02 04:48:08;;;;;;;6.05;3.00;;;;;;;16.45;70.79;97483.03;4851258;29;20271;-78
2022/10/02 04:51:10;;;;;;;6.32;3.45;;;;;;;16.48;70.82;97479.84;4793900;29;20231;-78
2022/10/02 04:53:38;;;;;;;10.65;3.83;;;;;;;16.62;70.78;97480.81;4793040;29;20208;-79
2022/10/02 04:56:22;;;;;;;9.75;4.00;;;;;;;16.40;70.85;97477.81;4778858;29;20204;-78
2022/10/02 04:58:54;;;;;;;7.97;3.83;;;;;;;16.52;70.41;97475.63;4775191;29;20408;-79
2022/10/02 05:01:37;;;;;;;8.95;3.47;;;;;;;16.44;70.47;97482.25;4790807;29;20697;-78
2022/10/02 05:04:34;;;;;;;10.90;3.67;;;;;;;16.29;70.89;97477.88;4776211;29;20296;-78
2022/10/02 05:07:00;;;;;;;9.98;3.47;;;;;;;16.55;70.46;97482.94;4786426;29;20204;-79
2022/10/02 05:10:02;;;;;;;8.30;4.35;;;;;;;16.40;70.59;97472.56;4792522;29;20615;-79
2022/10/02 05:12:37;;;;;;;6.85;3.38;;;;;;;16.40;69.99;97465.47;4776997;29;20248;-78
2022/10/02 05:15:39;;;;;;;5.43;3.05;;;;;;;16.38;70.95;97469.41;4791908;29;20212;-78
2022/10/02 05:18:07;;;;;;;5.85;3.00;;;;;;;16.67;69.60;97478.13;4771948;29;20298;-78
2022/10/02 05:20:55;;;;;;;5.30;2.90;;;;;;;16.46;70.34;97476.72;4775401;29;20182;-78
2022/10/02 05:23:36;;;;;;;8.88;3.10;;;;;;;16.26;70.46;97481.09;4775236;29;20176;-78
2022/10/02 05:26:12;;;;;;;6.80;3.25;;;;;;;16.57;69.50;97487.94;4828990;29;20341;-78
2022/10/02 05:28:37;;;;;;;8.00;3.10;;;;;;;16.55;70.12;97482.94;4861065;29;20788;-78
2022/10/02 05:31:16;;;;;;;6.70;3.00;;;;;;;16.26;70.84;97486.34;4847711;29;20275;-79
2022/10/02 05:33:48;;;;;;;5.93;2.50;;;;;;;16.40;70.56;97478.63;4845570;29;20275;-78
2022/10/02 05:36:41;;;;;;;3.13;1.98;;;;;;;16.27;70.49;97472.13;4848074;29;20402;-79
2022/10/02 05:39:21;;;;;;;6.10;2.13;;;;;;;16.27;70.59;97481.84;4862323;29;20259;-78
2022/10/02 05:41:56;;;;;;;7.00;2.33;;;;;;;16.35;70.64;97485.72;4830420;29;20275;-78
2022/10/02 05:44:46;;;;;;;4.15;1.70;;;;;;;16.12;70.76;97481.94;4847527;29;20272;-78
2022/10/02 05:47:28;;;;;;;3.30;1.38;;;;;;;16.16;70.66;97475.09;4831922;29;20158;-78
2022/10/02 05:50:13;;;;;;;1.90;1.60;;;;;;;16.15;70.81;97478.78;4863403;28;20592;-78
2022/10/02 05:53:02;;;;;;;3.22;1.65;;;;;;;16.24;70.75;97485.78;4866401;29;20248;-78
2022/10/02 05:55:36;;;;;;;1.77;1.40;;;;;;;16.23;70.47;97486.88;4834491;29;20256;-78
2022/10/02 05:58:11;;;;;;;4.10;1.35;;;;;;;16.24;70.53;97485.03;4855435;29;20300;-78
2022/10/02 06:00:48;;;;;;;1.50;1.13;;;;;;;16.14;70.54;97480.59;4863125;29;20727;-78
2022/10/02 06:03:18;;;;;;;2.80;1.02;;;;;;;16.39;70.39;97478.88;4849710;29;20688;-77
2022/10/02 06:05:54;;;;;;;2.92;0.80;;;;;;;16.23;70.44;97484.25;4835760;29;20286;-78
2022/10/02 06:08:39;;;;;;;4.40;1.52;;;;;;;16.15;70.34;97476.94;4835871;29;20355;-77
2022/10/02 06:11:47;;;;;;;2.60;1.20;;;;;;;16.14;70.88;97490.34;4844184;29;20706;-79
2022/10/02 06:14:35;;;;;;;1.92;0.70;;;;;;;16.39;70.04;97497.28;4838558;29;20232;-78
2022/10/02 06:17:21;;;;;;;1.35;0.60;;;;;;;16.15;70.54;97487.44;4847775;29;20603;-78
2022/10/02 06:19:58;;;;;;;1.73;0.80;;;;;;;16.22;70.55;97476.63;4846456;29;20189;-77
2022/10/02 06:22:27;;;;;;;2.78;0.80;;;;;;;16.22;70.44;97482.66;4850831;29;20263;-77
2022/10/02 06:24:57;;;;;;;1.60;0.60;;;;;;;16.19;70.48;97477.94;4850055;29;20667;-78
2022/10/02 06:27:39;;;;;;;0.88;0.60;;;;;;;16.19;70.35;97472.69;4849978;29;20256;-77
2022/10/02 06:30:09;;;;;;;1.10;0.57;;;;;;;16.23;70.05;97471.09;4851251;29;20783;-78
2022/10/02 06:32:55;;;;;;;1.88;0.50;;;;;;;16.17;70.33;97472.19;4849623;29;20157;-77
2022/10/02 06:35:36;;;;;;;3.72;1.05;;;;;;;16.05;70.86;97471.75;4841427;29;20260;-78
2022/10/02 06:38:09;;;;;;;0.73;0.40;;;;;;;16.06;70.50;97473.34;4846989;29;20188;-77
2022/10/02 06:40:53;;;;;;;1.30;0.65;;;;;;;16.10;70.59;97479.59;4850801;29;20249;-77
2022/10/02 06:43:32;;;;;;;1.15;0.68;;;;;;;16.07;70.54;97464.38;4863872;29;20223;-78
2022/10/02 06:46:35;;;;;;;1.50;0.40;;;;;;;16.10;70.73;97463.84;4851894;29;20283;-78
2022/10/02 06:49:08;;;;;;;1.70;0.50;;;;;;;16.15;70.22;97463.81;4850320;29;20216;-78
2022/10/02 06:51:49;;;;;;;0.70;0.50;;;;;;;16.10;70.64;97466.47;4860160;29;20244;-78
2022/10/02 06:54:26;;;;;;;3.15;0.70;;;;;;;16.13;70.62;97463.28;4859880;29;20526;-78
2022/10/02 06:57:12;;;;;;;0.75;0.43;;;;;;;16.06;70.87;97457.56;4851585;29;20208;-78
2022/10/02 07:00:15;;;;;;;0.47;0.30;;;;;;;16.08;70.66;97456.22;4850143;29;20256;-78
2022/10/02 07:02:49;;;;;;;0.68;0.47;;;;;;;16.24;70.31;97453.50;4845681;29;20751;-78
2022/10/02 07:05:27;;;;;;;0.93;0.43;;;;;;;16.22;70.45;97466.91;4853569;29;20636;-77
2022/10/02 07:08:05;;;;;;;1.05;0.40;;;;;;;16.23;70.30;97472.97;4852351;29;20207;-78
2022/10/02 07:10:43;;;;;;;0.73;0.50;;;;;;;16.19;70.44;97472.69;4850683;29;20179;-77
2022/10/02 07:13:36;;;;;;;0.55;0.55;;;;;;;16.21;70.41;97464.53;4850466;29;20192;-77
2022/10/02 07:16:11;;;;;;;0.50;0.50;;;;;;;16.34;70.22;97469.19;4865429;29;20200;-78
2022/10/02 07:18:44;;;;;;;0.32;0.32;;;;;;;16.18;70.57;97473.00;4852438;29;20487;-79
2022/10/02 07:21:40;;;;;;;0.32;0.30;;;;;;;16.13;70.95;97468.56;4850652;29;20215;-77
2022/10/02 07:24:31;;;;;;;0.70;0.30;;;;;;;16.31;70.46;97463.69;4851079;29;20201;-77
2022/10/02 07:27:11;;;;;;;0.40;0.30;;;;;;;16.20;71.01;97460.38;4849006;29;20631;-77
2022/10/02 07:29:42;;;;;;;2.85;0.60;;;;;;;16.18;70.99;97459.88;4851935;29;20174;-77
2022/10/02 07:32:23;;;;;;;0.30;0.30;;;;;;;16.22;70.87;97474.00;4850048;29;20329;-77
2022/10/02 07:35:03;;;;;;;0.20;0.20;;;;;;;16.23;70.75;97470.34;4834139;29;20223;-77
2022/10/02 07:38:03;;;;;;;0.60;0.50;;;;;;;16.27;70.93;97484.47;4850152;29;20231;-77
2022/10/02 07:40:47;;;;;;;1.80;1.70;;;;;;;16.31;70.44;97495.22;4847160;29;20201;-77
2022/10/02 07:43:32;;;;;;;2.40;1.10;;;;;;;16.48;70.43;97498.25;4847092;29;20241;-77
2022/10/02 07:45:57;;;;;;;0.93;0.80;;;;;;;16.51;70.76;97495.09;4831648;29;20263;-77
2022/10/02 07:48:44;;;;;;;0.60;0.30;;;;;;;16.43;70.41;97501.72;4832190;29;20676;-78
2022/10/02 07:51:52;;;;;;;0.40;0.30;;;;;;;16.42;70.50;97497.50;4850672;29;20197;-78
2022/10/02 07:54:20;;;;;;;0.40;0.30;;;;;;;16.55;70.53;97506.59;4845984;29;20196;-77
2022/10/02 07:56:48;;;;;;;0.45;0.35;;;;;;;16.51;70.14;97497.72;4851042;29;20199;-78
2022/10/02 07:59:15;;;;;;;0.73;0.30;;;;;;;16.58;70.22;97500.03;4861073;29;20204;-78
2022/10/02 08:01:41;;;;;;;0.88;0.40;;;;;;;16.58;70.23;97497.41;4849805;29;20363;-77
2022/10/02 08:04:16;;;;;;;0.30;0.30;;;;;;;16.44;70.49;97499.88;4846051;29;20618;-77
2022/10/02 08:06:43;;;;;;;0.90;0.20;;;;;;;16.60;70.62;97492.66;4861582;29;20149;-77
2022/10/02 08:09:21;;;;;;;0.40;0.40;;;;;;;16.45;71.00;97480.41;4849418;29;20234;-77
2022/10/02 08:11:51;;;;;;;0.30;0.30;;;;;;;16.56;70.78;97492.41;4849805;29;20178;-77
2022/10/02 08:14:27;;;;;;;1.13;0.60;;;;;;;16.58;70.68;97492.91;4834341;29;20214;-78
2022/10/02 08:16:54;;;;;;;0.60;0.30;;;;;;;16.70;70.80;97481.28;4850007;29;20304;-78
2022/10/02 08:19:28;;;;;;;0.63;0.60;;;;;;;16.61;70.71;97484.50;4849095;29;20215;-77
2022/10/02 08:22:08;;;;;;;1.20;0.47;;;;;;;16.58;70.68;97485.03;4847825;29;20282;-77
2022/10/02 08:24:46;;;;;;;2.53;0.50;;;;;;;16.54;71.07;97478.78;4849804;29;20240;-77
2022/10/02 08:27:18;;;;;;;0.93;0.50;;;;;;;16.60;70.82;97482.91;4847463;29;20160;-78
2022/10/02 08:30:05;;;;;;;0.55;0.52;;;;;;;16.59;71.28;97497.13;4830378;29;20646;-78
2022/10/02 08:32:32;;;;;;;0.55;0.47;;;;;;;16.66;70.87;97499.44;4846823;29;20147;-78
2022/10/02 08:34:59;;;;;;;0.55;0.55;;;;;;;16.71;70.93;97490.72;4849707;29;20782;-77
2022/10/02 08:37:29;;;;;;;0.43;0.30;;;;;;;16.62;70.99;97490.53;4837047;29;20663;-77
2022/10/02 08:40:16;;;;;;;0.28;0.28;;;;;;;16.66;71.07;97496.81;4847675;29;20230;-78
2022/10/02 08:42:44;;;;;;;1.90;0.40;;;;;;;16.79;71.30;97500.63;4847717;29;20256;-78
2022/10/02 08:45:28;;;;;;;0.47;0.47;;;;;;;16.67;70.98;97498.38;4846785;29;20216;-77
2022/10/02 08:48:14;;;;;;;1.00;0.45;;;;;;;16.64;71.24;97499.72;4848129;29;20216;-77
2022/10/02 08:50:43;;;;;;;1.88;1.15;;;;;;;16.79;71.05;97501.44;4848249;29;20222;-78
2022/10/02 08:53:31;;;;;;;0.52;0.47;;;;;;;16.54;71.45;97494.53;4848113;29;20339;-78
2022/10/02 08:55:57;;;;;;;0.93;0.50;;;;;;;16.80;71.25;97494.34;4832194;29;20213;-78
2022/10/02 08:58:47;;;;;;;1.50;0.70;;;;;;;16.68;71.06;97489.44;4848393;29;20631;-77
2022/10/02 09:01:26;;;;;;;0.70;0.45;;;;;;;16.71;70.85;97514.38;4848235;29;20219;-77
2022/10/02 09:04:20;;;;;;;0.70;0.60;;;;;;;16.58;71.24;97516.56;4849148;29;20718;-77
2022/10/02 09:06:51;;;;;;;0.95;0.85;;;;;;;16.74;71.58;97513.84;4851366;29;20204;-78
2022/10/02 09:09:44;;;;;;;0.70;0.63;;;;;;;16.58;71.17;97515.81;4851832;29;20284;-77
2022/10/02 09:12:46;;;;;;;2.13;1.92;;;;;;;16.57;71.51;97504.50;4848595;29;20492;-78
2022/10/02 09:15:15;;;;;;;1.10;1.00;;;;;;;16.78;71.18;97494.59;4863637;29;20324;-78
2022/10/02 09:17:59;;;;;;;1.08;1.00;;;;;;;16.67;71.35;97483.41;4847255;29;20291;-78
2022/10/02 09:20:47;;;;;;;0.98;0.63;;;;;;;16.75;71.45;97491.75;4845991;29;20257;-77
2022/10/02 09:23:21;;;;;;;1.73;0.98;;;;;;;16.80;70.92;97489.06;4848166;29;20280;-78
2022/10/02 09:26:17;;;;;;;1.20;1.10;;;;;;;16.78;71.07;97488.56;4851331;29;20203;-78
2022/10/02 09:29:14;;;;;;;1.20;1.10;;;;;;;16.83;71.29;97488.53;4849666;29;20204;-78
2022/10/02 09:32:02;;;;;;;1.95;1.33;;;;;;;16.79;70.98;97495.38;4855713;29;20287;-79
2022/10/02 09:34:57;;;;;;;1.50;1.40;;;;;;;16.84;71.07;97495.38;4852690;29;20214;-78
2022/10/02 09:37:42;;;;;;;1.63;1.10;;;;;;;17.00;70.66;97498.66;4852029;29;20161;-78
2022/10/02 09:40:45;;;;;;;1.00;0.90;;;;;;;16.72;71.21;97500.97;4863266;29;20710;-77
2022/10/02 09:43:10;;;;;;;1.13;0.80;;;;;;;16.96;70.76;97495.78;4845944;29;20358;-77
2022/10/02 09:46:13;;;;;;;1.00;0.90;;;;;;;16.77;71.28;97511.44;4848364;29;20627;-77
2022/10/02 09:49:01;;;;;;;0.93;0.82;;;;;;;16.69;71.26;97508.63;4863636;29;20297;-77
2022/10/02 09:51:35;;;;;;;0.70;0.70;;;;;;;16.85;71.19;97505.63;4858368;29;20903;-78
2022/10/02 09:54:09;;;;;;;1.00;0.90;;;;;;;17.01;70.96;97495.72;4855933;29;20058;-78
2022/10/02 09:57:02;;;;;;;0.77;0.77;;;;;;;16.81;71.12;97503.78;4859002;29;20015;-77
2022/10/02 09:59:34;;;;;;;0.90;0.73;;;;;;;17.04;70.49;97518.06;4854829;29;20703;-78
2022/10/02 10:02:11;;;;;;;0.70;0.70;;;;;;;16.87;70.47;97520.34;4859028;29;20047;-78
2022/10/02 10:05:14;;;;;;;0.85;0.70;;;;;;;16.84;70.79;97519.84;4864376;29;20900;-77
2022/10/02 10:08:10;;;;;;;1.27;0.75;;;;;;;16.87;70.98;97518.50;4858727;29;20019;-77
2022/10/02 10:10:45;;;;;;;1.40;0.60;;;;;;;16.99;70.93;97513.63;4854898;29;20028;-77
2022/10/02 10:13:34;;;;;;;0.95;0.90;;;;;;;16.84;71.39;97506.69;4842271;29;20028;-77
2022/10/02 10:16:18;;;;;;;0.75;0.60;;;;;;;17.06;71.04;97499.38;4842697;29;20115;-77
2022/10/02 10:19:13;;;;;;;0.73;0.55;;;;;;;16.94;71.08;97508.44;4852947;29;20035;-77
2022/10/02 10:21:57;;;;;;;0.52;0.50;;;;;;;17.13;70.38;97505.88;4851559;29;20082;-77
2022/10/02 10:24:42;;;;;;;0.73;0.47;;;;;;;16.91;71.33;97498.44;4839966;29;20047;-77
2022/10/02 10:27:28;;;;;;;0.70;0.57;;;;;;;16.89;71.61;97505.84;4854349;29;20053;-77
2022/10/02 10:30:26;;;;;;;0.60;0.50;;;;;;;16.98;71.13;97506.81;4848234;29;20275;-77
2022/10/02 10:33:07;;;;;;;0.50;0.50;;;;;;;17.03;70.52;97512.03;4834881;29;20031;-78
2022/10/02 10:36:01;;;;;;;0.50;0.50;;;;;;;16.97;70.72;97523.66;4852983;29;20203;-78
2022/10/02 10:38:35;;;;;;;0.68;0.60;;;;;;;16.99;70.66;97532.06;4838295;29;20032;-78
2022/10/02 10:41:15;;;;;;;0.30;0.30;;;;;;;16.99;70.84;97539.16;4858057;29;20028;-78
2022/10/02 10:43:56;;;;;;;0.70;0.50;;;;;;;17.01;70.67;97519.41;4847162;29;20702;-78
2022/10/02 10:46:42;;;;;;;1.13;0.50;;;;;;;17.13;70.71;97510.38;4855583;29;20046;-77
2022/10/02 10:49:26;;;;;;;0.73;0.40;;;;;;;17.02;71.85;97505.19;4854169;29;20742;-77
2022/10/02 10:52:12;;;;;;;0.70;0.65;;;;;;;17.18;71.50;97500.56;4854437;29;20035;-77
2022/10/02 10:55:00;;;;;;;0.60;0.60;;;;;;;17.38;70.91;97504.84;4841426;29;20437;-77
2022/10/02 10:57:34;;;;;;;0.60;0.60;;;;;;;17.32;70.79;97510.44;4850774;29;20642;-77
2022/10/02 11:00:14;;;;;;;0.63;0.63;;;;;;;17.29;71.02;97514.41;4851505;29;20177;-78
2022/10/02 11:02:58;;;;;;;0.80;0.65;;;;;;;17.26;70.89;97525.50;4833924;29;20597;-78
2022/10/02 11:05:48;;;;;;;0.63;0.60;;;;;;;17.32;70.90;97519.09;4841154;29;20464;-78
2022/10/02 11:08:22;;;;;;;0.57;0.57;;;;;;;17.34;70.28;97516.19;4848951;29;20199;-78
2022/10/02 11:11:16;;;;;;;0.40;0.40;;;;;;;17.27;70.38;97518.38;4849815;29;20208;-79
2022/10/02 11:14:06;;;;;;;0.40;0.40;;;;;;;17.26;70.14;97520.22;4847967;29;20650;-79
2022/10/02 11:16:57;;;;;;;0.82;0.50;;;;;;;17.10;71.14;97505.66;4861218;29;20584;-78
2022/10/02 11:19:40;;;;;;;0.38;0.38;;;;;;;17.12;70.47;97504.31;4846732;29;20293;-78
2022/10/02 11:22:09;;;;;;;0.32;0.32;;;;;;;17.23;70.56;97510.25;4849236;29;20213;-78
2022/10/02 11:24:43;;;;;;;0.55;0.55;;;;;;;17.19;70.82;97514.53;4847465;29;20215;-78
2022/10/02 11:27:18;;;;;;;0.43;0.43;;;;;;;17.22;70.85;97516.56;4845932;29;20196;-78
2022/10/02 11:29:53;;;;;;;0.35;0.32;;;;;;;17.34;70.50;97524.91;4850646;29;20650;-79
2022/10/02 11:32:58;;;;;;;0.40;0.40;;;;;;;17.16;70.51;97526.38;4849363;29;20261;-79
2022/10/02 11:35:43;;;;;;;0.73;0.50;;;;;;;17.03;70.69;97533.09;4847153;29;20696;-79
2022/10/02 11:38:22;;;;;;;;;;;;;;;16.90;71.79;97533.72;4848332;29;20169;-79
2022/10/02 11:40:56;;;;;;;0.55;0.40;;;;;;;17.30;70.43;97542.28;4863085;29;20170;-78
2022/10/02 11:43:58;;;;;;;0.20;0.20;;;;;;;17.04;71.10;97539.13;4842898;29;20250;-79
2022/10/02 11:46:51;;;;;;;0.70;0.43;;;;;;;17.14;70.78;97546.16;4843765;29;20224;-79
2022/10/02 11:49:58;;;;;;;0.40;0.30;;;;;;;17.04;70.54;97537.28;4845738;29;20196;-78
2022/10/02 11:52:42;;;;;;;1.05;0.30;;;;;;;17.15;70.46;97535.34;4848534;29;20324;-78
2022/10/02 11:55:27;;;;;;;0.63;0.30;;;;;;;17.25;70.41;97528.41;4848641;29;20343;-78
2022/10/02 11:58:06;;;;;;;0.43;0.30;;;;;;;17.23;70.29;97526.06;4849108;29;20203;-77
2022/10/02 12:00:57;;;;;;;2.15;0.40;;;;;;;16.96;71.45;97532.59;4848448;29;20224;-78
2022/10/02 12:03:35;;;;;;;0.70;0.32;;;;;;;17.07;71.20;97527.25;4833046;29;20285;-78
2022/10/02 12:06:09;;;;;;;1.80;1.10;;;;;;;17.03;71.09;97517.31;4848477;29;20268;-78
2022/10/02 12:08:41;;;;;;;0.73;0.47;;;;;;;17.24;70.92;97519.72;4863037;29;20296;-79
2022/10/02 12:11:43;;;;;;;1.00;0.30;;;;;;;17.10;71.53;97516.97;4849966;29;20291;-78
2022/10/02 12:14:15;;;;;;;0.20;0.20;;;;;;;17.37;70.77;97526.16;4847425;29;20693;-78
2022/10/02 12:16:51;;;;;;;0.30;0.30;;;;;;;17.34;70.41;97521.47;4849063;29;20219;-78
2022/10/02 12:28:31;;;;;;;2.38;0.40;;;;;;;17.50;70.07;97530.78;4849218;29;20200;-78
2022/10/02 12:31:21;;;;;;;0.30;0.30;;;;;;;17.33;70.61;97536.47;4847682;29;20221;-78
2022/10/02 12:33:57;;;;;;;0.45;0.20;;;;;;;17.19;70.58;97533.72;4838163;29;20293;-78
2022/10/02 12:37:05;;;;;;;0.70;0.20;;;;;;;17.12;71.10;97543.78;4844402;29;20654;-78
2022/10/02 12:39:42;;;;;;;2.63;0.90;;;;;;;17.16;71.00;97544.03;4843772;29;20231;-78
2022/10/02 12:42:20;;;;;;;0.35;0.30;;;;;;;17.15;70.92;97535.34;4837488;29;20788;-78